sensor_id;sensor_type;location;lat;lon;timestamp;P1;durP1;ratioP1;P2;durP2;ratioP2
21095;SDS011;10706;49.036;12.112;2023-02-01T00:02:01;14.43;;;4.57;;
21095;SDS011;10706;49.036;12.112;2023-02-01T00:04:27;11.23;;;4.17;;
21095;SDS011;10706;49.036;12.112;2023-02-01T00:06:53;14.60;;;4.00;;
21095;SDS011;10706;49.036;12.112;2023-02-01T00:09:19;11.50;;;3.87;;
21095;SDS011;10706;49.036;12.112;2023-02-01T00:11:44;8.73;;;3.73;;
21095;SDS011;10706;49.036;12.112;2023-02-01T00:14:10;12.47;;;4.07;;
21095;SDS011;10706;49.036;12.112;2023-02-01T00:16:36;13.37;;;5.13;;
21095;SDS011;10706;49.036;12.112;2023-02-01T00:19:04;12.83;;;4.43;;
21095;SDS011;10706;49.036;12.112;2023-02-01T00:21:36;13.37;;;4.77;;
21095;SDS011;10706;49.036;12.112;2023-02-01T00:24:03;14.20;;;4.27;;
21095;SDS011;10706;49.036;12.112;2023-02-01T00:29:01;14.07;;;5.30;;
21095;SDS011;10706;49.036;12.112;2023-02-01T00:31:29;15.43;;;4.57;;
21095;SDS011;10706;49.036;12.112;2023-02-01T00:33:55;12.70;;;4.97;;
21095;SDS011;10706;49.036;12.112;2023-02-01T00:36:21;12.83;;;4.23;;
21095;SDS011;10706;49.036;12.112;2023-02-01T00:38:46;13.67;;;4.33;;
21095;SDS011;10706;49.036;12.112;2023-02-01T00:41:13;11.23;;;4.83;;
21095;SDS011;10706;49.036;12.112;2023-02-01T00:43:45;15.73;;;5.27;;
21095;SDS011;10706;49.036;12.112;2023-02-01T00:46:12;14.40;;;4.97;;
21095;SDS011;10706;49.036;12.112;2023-02-01T00:48:39;17.10;;;5.23;;
21095;SDS011;10706;49.036;12.112;2023-02-01T00:51:06;12.43;;;5.03;;
21095;SDS011;10706;49.036;12.112;2023-02-01T00:53:35;11.80;;;4.40;;
21095;SDS011;10706;49.036;12.112;2023-02-01T00:56:01;13.57;;;4.60;;
21095;SDS011;10706;49.036;12.112;2023-02-01T00:58:27;13.27;;;4.93;;
21095;SDS011;10706;49.036;12.112;2023-02-01T01:01:00;10.50;;;4.47;;
21095;SDS011;10706;49.036;12.112;2023-02-01T01:03:42;15.03;;;4.87;;
21095;SDS011;10706;49.036;12.112;2023-02-01T01:06:12;12.73;;;5.00;;
21095;SDS011;10706;49.036;12.112;2023-02-01T01:08:41;12.23;;;5.03;;
21095;SDS011;10706;49.036;12.112;2023-02-01T01:11:12;10.60;;;4.53;;
21095;SDS011;10706;49.036;12.112;2023-02-01T01:13:48;12.70;;;5.27;;
21095;SDS011;10706;49.036;12.112;2023-02-01T01:16:16;18.30;;;5.30;;
21095;SDS011;10706;49.036;12.112;2023-02-01T01:18:43;13.57;;;5.30;;
21095;SDS011;10706;49.036;12.112;2023-02-01T01:21:09;13.23;;;5.07;;
21095;SDS011;10706;49.036;12.112;2023-02-01T01:23:37;12.53;;;5.23;;
21095;SDS011;10706;49.036;12.112;2023-02-01T01:26:07;11.47;;;4.53;;
21095;SDS011;10706;49.036;12.112;2023-02-01T01:28:35;13.50;;;5.00;;
21095;SDS011;10706;49.036;12.112;2023-02-01T01:31:01;11.93;;;4.87;;
21095;SDS011;10706;49.036;12.112;2023-02-01T01:33:27;13.57;;;5.23;;
21095;SDS011;10706;49.036;12.112;2023-02-01T01:35:53;15.93;;;5.67;;
21095;SDS011;10706;49.036;12.112;2023-02-01T01:38:18;11.83;;;5.23;;
21095;SDS011;10706;49.036;12.112;2023-02-01T01:40:45;14.23;;;5.43;;
21095;SDS011;10706;49.036;12.112;2023-02-01T01:43:17;16.50;;;5.40;;
21095;SDS011;10706;49.036;12.112;2023-02-01T01:45:47;12.97;;;4.83;;
21095;SDS011;10706;49.036;12.112;2023-02-01T01:48:19;12.10;;;4.83;;
21095;SDS011;10706;49.036;12.112;2023-02-01T01:50:56;13.53;;;5.07;;
21095;SDS011;10706;49.036;12.112;2023-02-01T01:53:33;12.23;;;4.33;;
21095;SDS011;10706;49.036;12.112;2023-02-01T01:56:12;13.77;;;5.37;;
21095;SDS011;10706;49.036;12.112;2023-02-01T01:58:39;13.07;;;4.90;;
21095;SDS011;10706;49.036;12.112;2023-02-01T02:01:06;10.67;;;4.37;;
21095;SDS011;10706;49.036;12.112;2023-02-01T02:03:33;12.07;;;5.00;;
21095;SDS011;10706;49.036;12.112;2023-02-01T02:06:06;11.87;;;4.50;;
21095;SDS011;10706;49.036;12.112;2023-02-01T02:09:10;9.97;;;4.33;;
21095;SDS011;10706;49.036;12.112;2023-02-01T02:11:36;9.93;;;4.50;;
21095;SDS011;10706;49.036;12.112;2023-02-01T02:14:02;10.43;;;4.20;;
21095;SDS011;10706;49.036;12.112;2023-02-01T02:16:38;9.97;;;4.03;;
21095;SDS011;10706;49.036;12.112;2023-02-01T02:28:24;9.70;;;4.23;;
21095;SDS011;10706;49.036;12.112;2023-02-01T02:34:44;10.27;;;3.90;;
21095;SDS011;10706;49.036;12.112;2023-02-01T02:37:40;9.97;;;3.70;;
21095;SDS011;10706;49.036;12.112;2023-02-01T02:41:01;10.80;;;3.90;;
21095;SDS011;10706;49.036;12.112;2023-02-01T02:44:06;7.70;;;3.73;;
21095;SDS011;10706;49.036;12.112;2023-02-01T02:47:09;8.20;;;3.60;;
21095;SDS011;10706;49.036;12.112;2023-02-01T02:49:52;10.13;;;4.30;;
21095;SDS011;10706;49.036;12.112;2023-02-01T02:53:03;10.43;;;3.93;;
21095;SDS011;10706;49.036;12.112;2023-02-01T02:55:58;11.43;;;4.37;;
21095;SDS011;10706;49.036;12.112;2023-02-01T02:58:45;10.03;;;3.87;;
21095;SDS011;10706;49.036;12.112;2023-02-01T03:01:30;11.20;;;4.20;;
21095;SDS011;10706;49.036;12.112;2023-02-01T03:04:15;11.73;;;4.53;;
21095;SDS011;10706;49.036;12.112;2023-02-01T03:06:42;13.07;;;4.90;;
21095;SDS011;10706;49.036;12.112;2023-02-01T03:09:13;12.17;;;4.63;;
21095;SDS011;10706;49.036;12.112;2023-02-01T03:11:48;13.57;;;4.63;;
21095;SDS011;10706;49.036;12.112;2023-02-01T03:14:39;11.57;;;4.90;;
21095;SDS011;10706;49.036;12.112;2023-02-01T03:17:11;11.77;;;4.10;;
21095;SDS011;10706;49.036;12.112;2023-02-01T03:19:45;11.53;;;4.33;;
21095;SDS011;10706;49.036;12.112;2023-02-01T03:22:24;9.23;;;4.10;;
21095;SDS011;10706;49.036;12.112;2023-02-01T03:25:00;11.10;;;4.80;;
21095;SDS011;10706;49.036;12.112;2023-02-01T03:30:34;12.23;;;4.93;;
21095;SDS011;10706;49.036;12.112;2023-02-01T03:33:05;12.10;;;4.33;;
21095;SDS011;10706;49.036;12.112;2023-02-01T03:35:56;13.60;;;4.53;;
21095;SDS011;10706;49.036;12.112;2023-02-01T03:41:48;10.70;;;4.33;;
21095;SDS011;10706;49.036;12.112;2023-02-01T03:44:26;13.37;;;5.33;;
21095;SDS011;10706;49.036;12.112;2023-02-01T03:47:25;11.07;;;4.40;;
21095;SDS011;10706;49.036;12.112;2023-02-01T03:49:53;12.37;;;4.30;;
21095;SDS011;10706;49.036;12.112;2023-02-01T03:55:03;7.60;;;3.67;;
21095;SDS011;10706;49.036;12.112;2023-02-01T03:57:32;12.03;;;4.00;;
21095;SDS011;10706;49.036;12.112;2023-02-01T04:00:04;9.73;;;3.70;;
21095;SDS011;10706;49.036;12.112;2023-02-01T04:02:33;8.60;;;4.03;;
21095;SDS011;10706;49.036;12.112;2023-02-01T04:04:59;9.70;;;3.60;;
21095;SDS011;10706;49.036;12.112;2023-02-01T04:07:25;11.83;;;4.00;;
21095;SDS011;10706;49.036;12.112;2023-02-01T04:09:51;10.20;;;3.87;;
21095;SDS011;10706;49.036;12.112;2023-02-01T04:12:16;10.30;;;4.10;;
21095;SDS011;10706;49.036;12.112;2023-02-01T04:14:42;11.87;;;4.00;;
21095;SDS011;10706;49.036;12.112;2023-02-01T04:17:08;13.40;;;4.23;;
21095;SDS011;10706;49.036;12.112;2023-02-01T04:19:33;12.03;;;4.13;;
21095;SDS011;10706;49.036;12.112;2023-02-01T04:21:59;12.17;;;4.00;;
21095;SDS011;10706;49.036;12.112;2023-02-01T04:24:25;10.30;;;3.57;;
21095;SDS011;10706;49.036;12.112;2023-02-01T04:26:50;11.10;;;3.97;;
21095;SDS011;10706;49.036;12.112;2023-02-01T04:29:16;10.53;;;4.07;;
21095;SDS011;10706;49.036;12.112;2023-02-01T04:31:42;9.57;;;4.00;;
21095;SDS011;10706;49.036;12.112;2023-02-01T04:34:07;6.23;;;3.37;;
21095;SDS011;10706;49.036;12.112;2023-02-01T04:36:33;8.57;;;3.60;;
21095;SDS011;10706;49.036;12.112;2023-02-01T04:38:59;8.40;;;3.47;;
21095;SDS011;10706;49.036;12.112;2023-02-01T04:41:24;6.83;;;3.40;;
21095;SDS011;10706;49.036;12.112;2023-02-01T04:43:50;10.00;;;3.60;;
21095;SDS011;10706;49.036;12.112;2023-02-01T04:46:17;6.90;;;3.30;;
21095;SDS011;10706;49.036;12.112;2023-02-01T04:48:43;10.37;;;3.33;;
21095;SDS011;10706;49.036;12.112;2023-02-01T04:51:09;7.60;;;3.00;;
21095;SDS011;10706;49.036;12.112;2023-02-01T04:53:35;7.40;;;3.40;;
21095;SDS011;10706;49.036;12.112;2023-02-01T04:56:01;10.67;;;3.50;;
21095;SDS011;10706;49.036;12.112;2023-02-01T04:58:27;7.07;;;3.23;;
21095;SDS011;10706;49.036;12.112;2023-02-01T05:00:53;7.97;;;3.57;;
21095;SDS011;10706;49.036;12.112;2023-02-01T05:03:19;5.57;;;2.87;;
21095;SDS011;10706;49.036;12.112;2023-02-01T05:05:46;10.13;;;2.93;;
21095;SDS011;10706;49.036;12.112;2023-02-01T05:08:13;8.20;;;2.97;;
21095;SDS011;10706;49.036;12.112;2023-02-01T05:10:39;10.57;;;3.20;;
21095;SDS011;10706;49.036;12.112;2023-02-01T05:13:05;7.87;;;3.47;;
21095;SDS011;10706;49.036;12.112;2023-02-01T05:15:50;6.40;;;2.70;;
21095;SDS011;10706;49.036;12.112;2023-02-01T05:18:16;6.80;;;2.97;;
21095;SDS011;10706;49.036;12.112;2023-02-01T05:20:44;6.97;;;3.10;;
21095;SDS011;10706;49.036;12.112;2023-02-01T05:23:10;5.53;;;2.70;;
21095;SDS011;10706;49.036;12.112;2023-02-01T05:25:35;6.43;;;2.70;;
21095;SDS011;10706;49.036;12.112;2023-02-01T05:28:01;9.03;;;3.10;;
21095;SDS011;10706;49.036;12.112;2023-02-01T05:30:27;8.43;;;2.77;;
21095;SDS011;10706;49.036;12.112;2023-02-01T05:32:52;7.37;;;3.00;;
21095;SDS011;10706;49.036;12.112;2023-02-01T05:35:19;7.70;;;2.93;;
21095;SDS011;10706;49.036;12.112;2023-02-01T05:37:45;6.27;;;2.80;;
21095;SDS011;10706;49.036;12.112;2023-02-01T05:40:10;5.73;;;2.53;;
21095;SDS011;10706;49.036;12.112;2023-02-01T05:42:36;6.57;;;2.70;;
21095;SDS011;10706;49.036;12.112;2023-02-01T05:45:03;5.33;;;2.70;;
21095;SDS011;10706;49.036;12.112;2023-02-01T05:47:30;8.03;;;3.00;;
21095;SDS011;10706;49.036;12.112;2023-02-01T05:49:56;4.80;;;2.50;;
21095;SDS011;10706;49.036;12.112;2023-02-01T05:52:22;5.17;;;2.60;;
21095;SDS011;10706;49.036;12.112;2023-02-01T05:54:47;6.13;;;2.50;;
21095;SDS011;10706;49.036;12.112;2023-02-01T05:57:13;8.20;;;3.00;;
21095;SDS011;10706;49.036;12.112;2023-02-01T05:59:40;7.73;;;3.10;;
21095;SDS011;10706;49.036;12.112;2023-02-01T06:02:13;5.07;;;2.47;;
21095;SDS011;10706;49.036;12.112;2023-02-01T06:04:42;7.03;;;2.90;;
21095;SDS011;10706;49.036;12.112;2023-02-01T06:07:08;4.63;;;2.77;;
21095;SDS011;10706;49.036;12.112;2023-02-01T06:09:35;5.93;;;3.00;;
21095;SDS011;10706;49.036;12.112;2023-02-01T06:12:01;5.03;;;2.57;;
21095;SDS011;10706;49.036;12.112;2023-02-01T06:14:28;6.33;;;3.33;;
21095;SDS011;10706;49.036;12.112;2023-02-01T06:16:54;7.10;;;2.90;;
21095;SDS011;10706;49.036;12.112;2023-02-01T06:19:20;8.47;;;3.33;;
21095;SDS011;10706;49.036;12.112;2023-02-01T06:21:47;5.37;;;2.47;;
21095;SDS011;10706;49.036;12.112;2023-02-01T06:24:13;9.77;;;3.00;;
21095;SDS011;10706;49.036;12.112;2023-02-01T06:26:39;5.70;;;2.83;;
21095;SDS011;10706;49.036;12.112;2023-02-01T06:29:11;8.57;;;3.43;;
21095;SDS011;10706;49.036;12.112;2023-02-01T06:31:38;10.97;;;3.47;;
21095;SDS011;10706;49.036;12.112;2023-02-01T06:34:04;6.37;;;3.00;;
21095;SDS011;10706;49.036;12.112;2023-02-01T06:36:30;8.40;;;3.00;;
21095;SDS011;10706;49.036;12.112;2023-02-01T06:38:56;7.00;;;3.10;;
21095;SDS011;10706;49.036;12.112;2023-02-01T06:41:22;6.13;;;3.00;;
21095;SDS011;10706;49.036;12.112;2023-02-01T06:43:48;8.13;;;3.50;;
21095;SDS011;10706;49.036;12.112;2023-02-01T06:46:14;11.80;;;4.20;;
21095;SDS011;10706;49.036;12.112;2023-02-01T06:48:40;6.83;;;2.80;;
21095;SDS011;10706;49.036;12.112;2023-02-01T06:51:06;9.67;;;3.30;;
21095;SDS011;10706;49.036;12.112;2023-02-01T06:53:43;7.53;;;3.27;;
21095;SDS011;10706;49.036;12.112;2023-02-01T06:56:08;8.30;;;3.50;;
21095;SDS011;10706;49.036;12.112;2023-02-01T06:58:34;6.83;;;3.03;;
21095;SDS011;10706;49.036;12.112;2023-02-01T07:01:04;8.83;;;3.50;;
21095;SDS011;10706;49.036;12.112;2023-02-01T07:03:31;8.23;;;3.63;;
21095;SDS011;10706;49.036;12.112;2023-02-01T07:05:57;8.10;;;2.80;;
21095;SDS011;10706;49.036;12.112;2023-02-01T07:08:29;7.93;;;3.20;;
21095;SDS011;10706;49.036;12.112;2023-02-01T07:10:57;10.10;;;3.40;;
21095;SDS011;10706;49.036;12.112;2023-02-01T07:13:31;7.00;;;3.47;;
21095;SDS011;10706;49.036;12.112;2023-02-01T07:16:00;9.70;;;3.43;;
21095;SDS011;10706;49.036;12.112;2023-02-01T07:18:28;5.80;;;2.93;;
21095;SDS011;10706;49.036;12.112;2023-02-01T07:20:54;6.03;;;2.70;;
21095;SDS011;10706;49.036;12.112;2023-02-01T07:23:20;9.33;;;3.07;;
21095;SDS011;10706;49.036;12.112;2023-02-01T07:25:46;10.87;;;3.40;;
21095;SDS011;10706;49.036;12.112;2023-02-01T07:28:12;7.50;;;3.10;;
21095;SDS011;10706;49.036;12.112;2023-02-01T07:30:38;8.93;;;3.93;;
21095;SDS011;10706;49.036;12.112;2023-02-01T07:33:04;8.00;;;3.60;;
21095;SDS011;10706;49.036;12.112;2023-02-01T07:35:31;8.60;;;3.30;;
21095;SDS011;10706;49.036;12.112;2023-02-01T07:37:57;8.83;;;3.50;;
21095;SDS011;10706;49.036;12.112;2023-02-01T07:40:23;8.23;;;3.20;;
21095;SDS011;10706;49.036;12.112;2023-02-01T07:42:53;7.83;;;3.27;;
21095;SDS011;10706;49.036;12.112;2023-02-01T07:45:20;9.70;;;3.50;;
21095;SDS011;10706;49.036;12.112;2023-02-01T07:47:47;9.53;;;3.83;;
21095;SDS011;10706;49.036;12.112;2023-02-01T07:50:13;11.57;;;3.70;;
21095;SDS011;10706;49.036;12.112;2023-02-01T07:52:40;10.07;;;4.20;;
21095;SDS011;10706;49.036;12.112;2023-02-01T07:55:06;16.30;;;4.13;;
21095;SDS011;10706;49.036;12.112;2023-02-01T07:57:32;10.30;;;3.97;;
21095;SDS011;10706;49.036;12.112;2023-02-01T07:59:58;12.13;;;4.40;;
21095;SDS011;10706;49.036;12.112;2023-02-01T08:02:42;12.53;;;4.30;;
21095;SDS011;10706;49.036;12.112;2023-02-01T08:05:08;9.50;;;4.20;;
21095;SDS011;10706;49.036;12.112;2023-02-01T08:07:34;11.97;;;4.10;;
21095;SDS011;10706;49.036;12.112;2023-02-01T08:10:00;14.50;;;5.90;;
21095;SDS011;10706;49.036;12.112;2023-02-01T08:12:26;12.07;;;4.70;;
21095;SDS011;10706;49.036;12.112;2023-02-01T08:14:52;10.23;;;3.77;;
21095;SDS011;10706;49.036;12.112;2023-02-01T08:17:18;9.93;;;3.97;;
21095;SDS011;10706;49.036;12.112;2023-02-01T08:19:45;14.83;;;4.50;;
21095;SDS011;10706;49.036;12.112;2023-02-01T08:22:11;13.00;;;4.57;;
21095;SDS011;10706;49.036;12.112;2023-02-01T08:24:36;11.30;;;4.53;;
21095;SDS011;10706;49.036;12.112;2023-02-01T08:27:05;14.53;;;5.07;;
21095;SDS011;10706;49.036;12.112;2023-02-01T08:29:31;10.57;;;3.97;;
21095;SDS011;10706;49.036;12.112;2023-02-01T08:31:57;13.60;;;3.90;;
21095;SDS011;10706;49.036;12.112;2023-02-01T08:34:23;14.77;;;4.80;;
21095;SDS011;10706;49.036;12.112;2023-02-01T08:36:49;13.43;;;4.27;;
21095;SDS011;10706;49.036;12.112;2023-02-01T08:39:16;9.03;;;3.67;;
21095;SDS011;10706;49.036;12.112;2023-02-01T08:41:42;9.90;;;3.63;;
21095;SDS011;10706;49.036;12.112;2023-02-01T08:44:28;8.60;;;3.20;;
21095;SDS011;10706;49.036;12.112;2023-02-01T08:46:54;11.43;;;3.67;;
21095;SDS011;10706;49.036;12.112;2023-02-01T08:49:19;7.53;;;3.33;;
21095;SDS011;10706;49.036;12.112;2023-02-01T08:51:45;9.53;;;3.30;;
21095;SDS011;10706;49.036;12.112;2023-02-01T08:54:11;9.40;;;3.10;;
21095;SDS011;10706;49.036;12.112;2023-02-01T08:56:36;7.83;;;3.20;;
21095;SDS011;10706;49.036;12.112;2023-02-01T08:59:02;9.70;;;3.90;;
21095;SDS011;10706;49.036;12.112;2023-02-01T09:01:28;9.87;;;2.93;;
21095;SDS011;10706;49.036;12.112;2023-02-01T09:03:54;8.13;;;2.83;;
21095;SDS011;10706;49.036;12.112;2023-02-01T09:06:19;5.97;;;2.80;;
21095;SDS011;10706;49.036;12.112;2023-02-01T09:08:45;5.57;;;2.50;;
21095;SDS011;10706;49.036;12.112;2023-02-01T09:11:12;9.90;;;2.57;;
21095;SDS011;10706;49.036;12.112;2023-02-01T09:13:40;6.20;;;2.57;;
21095;SDS011;10706;49.036;12.112;2023-02-01T09:16:07;5.23;;;2.30;;
21095;SDS011;10706;49.036;12.112;2023-02-01T09:18:33;6.17;;;2.63;;
21095;SDS011;10706;49.036;12.112;2023-02-01T09:21:03;9.93;;;2.40;;
21095;SDS011;10706;49.036;12.112;2023-02-01T09:23:30;3.97;;;2.10;;
21095;SDS011;10706;49.036;12.112;2023-02-01T09:26:00;8.43;;;2.20;;
21095;SDS011;10706;49.036;12.112;2023-02-01T09:28:27;8.53;;;2.50;;
21095;SDS011;10706;49.036;12.112;2023-02-01T09:30:57;8.13;;;2.43;;
21095;SDS011;10706;49.036;12.112;2023-02-01T09:33:24;6.50;;;2.83;;
21095;SDS011;10706;49.036;12.112;2023-02-01T09:35:55;5.70;;;2.33;;
21095;SDS011;10706;49.036;12.112;2023-02-01T09:38:25;5.10;;;2.13;;
21095;SDS011;10706;49.036;12.112;2023-02-01T09:40:52;8.13;;;2.53;;
21095;SDS011;10706;49.036;12.112;2023-02-01T09:46:18;4.67;;;2.40;;
21095;SDS011;10706;49.036;12.112;2023-02-01T09:48:54;7.23;;;2.60;;
21095;SDS011;10706;49.036;12.112;2023-02-01T09:52:00;7.70;;;2.63;;
21095;SDS011;10706;49.036;12.112;2023-02-01T09:54:22;3.83;;;1.93;;
21095;SDS011;10706;49.036;12.112;2023-02-01T09:57:02;6.20;;;2.70;;
21095;SDS011;10706;49.036;12.112;2023-02-01T09:59:52;6.47;;;2.70;;
21095;SDS011;10706;49.036;12.112;2023-02-01T10:02:28;4.93;;;2.60;;
21095;SDS011;10706;49.036;12.112;2023-02-01T10:04:55;6.40;;;2.70;;
21095;SDS011;10706;49.036;12.112;2023-02-01T10:10:28;8.43;;;2.80;;
21095;SDS011;10706;49.036;12.112;2023-02-01T10:13:17;10.47;;;3.20;;
21095;SDS011;10706;49.036;12.112;2023-02-01T10:24:34;7.23;;;3.13;;
21095;SDS011;10706;49.036;12.112;2023-02-01T10:29:47;10.27;;;4.03;;
21095;SDS011;10706;49.036;12.112;2023-02-01T10:32:32;14.83;;;4.40;;
21095;SDS011;10706;49.036;12.112;2023-02-01T10:35:00;15.83;;;3.83;;
21095;SDS011;10706;49.036;12.112;2023-02-01T10:37:37;10.43;;;3.67;;
21095;SDS011;10706;49.036;12.112;2023-02-01T10:42:52;12.87;;;3.53;;
21095;SDS011;10706;49.036;12.112;2023-02-01T10:45:24;16.77;;;3.93;;
21095;SDS011;10706;49.036;12.112;2023-02-01T10:47:55;9.90;;;3.63;;
21095;SDS011;10706;49.036;12.112;2023-02-01T10:55:51;9.93;;;3.27;;
21095;SDS011;10706;49.036;12.112;2023-02-01T10:58:29;7.37;;;3.03;;
21095;SDS011;10706;49.036;12.112;2023-02-01T11:01:06;9.20;;;4.20;;
21095;SDS011;10706;49.036;12.112;2023-02-01T11:03:39;14.07;;;3.83;;
21095;SDS011;10706;49.036;12.112;2023-02-01T11:06:33;9.87;;;3.07;;
21095;SDS011;10706;49.036;12.112;2023-02-01T11:14:18;13.17;;;3.10;;
21095;SDS011;10706;49.036;12.112;2023-02-01T11:16:51;8.87;;;2.70;;
21095;SDS011;10706;49.036;12.112;2023-02-01T11:19:20;12.27;;;3.30;;
21095;SDS011;10706;49.036;12.112;2023-02-01T11:21:53;7.63;;;3.23;;
21095;SDS011;10706;49.036;12.112;2023-02-01T11:26:57;11.63;;;3.30;;
21095;SDS011;10706;49.036;12.112;2023-02-01T11:29:25;9.97;;;2.67;;
21095;SDS011;10706;49.036;12.112;2023-02-01T11:32:17;9.43;;;2.70;;
21095;SDS011;10706;49.036;12.112;2023-02-01T11:34:50;11.77;;;2.93;;
21095;SDS011;10706;49.036;12.112;2023-02-01T11:37:31;10.97;;;2.93;;
21095;SDS011;10706;49.036;12.112;2023-02-01T11:40:23;14.53;;;3.03;;
21095;SDS011;10706;49.036;12.112;2023-02-01T11:42:56;5.60;;;2.73;;
21095;SDS011;10706;49.036;12.112;2023-02-01T11:45:27;12.03;;;3.13;;
21095;SDS011;10706;49.036;12.112;2023-02-01T11:48:02;9.30;;;3.13;;
21095;SDS011;10706;49.036;12.112;2023-02-01T11:50:46;9.77;;;3.07;;
21095;SDS011;10706;49.036;12.112;2023-02-01T11:59:58;13.27;;;3.17;;
21095;SDS011;10706;49.036;12.112;2023-02-01T12:02:57;12.07;;;3.20;;
21095;SDS011;10706;49.036;12.112;2023-02-01T12:12:14;16.03;;;3.17;;
21095;SDS011;10706;49.036;12.112;2023-02-01T12:14:53;14.03;;;3.00;;
21095;SDS011;10706;49.036;12.112;2023-02-01T12:17:53;12.17;;;2.83;;
21095;SDS011;10706;49.036;12.112;2023-02-01T12:30:38;10.80;;;2.93;;
21095;SDS011;10706;49.036;12.112;2023-02-01T12:33:52;8.13;;;2.57;;
21095;SDS011;10706;49.036;12.112;2023-02-01T12:36:41;10.00;;;2.30;;
21095;SDS011;10706;49.036;12.112;2023-02-01T12:39:39;7.50;;;2.67;;
21095;SDS011;10706;49.036;12.112;2023-02-01T12:42:11;9.03;;;3.00;;
21095;SDS011;10706;49.036;12.112;2023-02-01T12:47:23;9.23;;;3.53;;
21095;SDS011;10706;49.036;12.112;2023-02-01T12:50:18;8.97;;;3.37;;
21095;SDS011;10706;49.036;12.112;2023-02-01T12:52:52;9.40;;;2.60;;
21095;SDS011;10706;49.036;12.112;2023-02-01T12:55:38;13.70;;;3.67;;
21095;SDS011;10706;49.036;12.112;2023-02-01T13:01:09;8.07;;;2.77;;
21095;SDS011;10706;49.036;12.112;2023-02-01T13:03:50;10.67;;;2.97;;
21095;SDS011;10706;49.036;12.112;2023-02-01T13:06:34;12.60;;;3.07;;
21095;SDS011;10706;49.036;12.112;2023-02-01T13:15:14;10.23;;;3.53;;
21095;SDS011;10706;49.036;12.112;2023-02-01T13:17:54;12.03;;;3.93;;
21095;SDS011;10706;49.036;12.112;2023-02-01T13:20:26;9.33;;;3.07;;
21095;SDS011;10706;49.036;12.112;2023-02-01T13:23:09;12.70;;;3.10;;
21095;SDS011;10706;49.036;12.112;2023-02-01T13:25:49;6.97;;;3.37;;
21095;SDS011;10706;49.036;12.112;2023-02-01T13:45:20;11.57;;;3.10;;
21095;SDS011;10706;49.036;12.112;2023-02-01T13:47:54;8.63;;;2.70;;
21095;SDS011;10706;49.036;12.112;2023-02-01T13:50:27;10.27;;;2.80;;
21095;SDS011;10706;49.036;12.112;2023-02-01T13:53:14;10.60;;;3.17;;
21095;SDS011;10706;49.036;12.112;2023-02-01T13:55:46;16.40;;;3.07;;
21095;SDS011;10706;49.036;12.112;2023-02-01T13:58:30;7.63;;;2.77;;
21095;SDS011;10706;49.036;12.112;2023-02-01T14:03:55;7.50;;;2.97;;
21095;SDS011;10706;49.036;12.112;2023-02-01T14:11:36;9.90;;;2.60;;
21095;SDS011;10706;49.036;12.112;2023-02-01T14:16:40;7.07;;;2.53;;
21095;SDS011;10706;49.036;12.112;2023-02-01T14:19:27;12.43;;;2.73;;
21095;SDS011;10706;49.036;12.112;2023-02-01T14:24:52;10.00;;;2.47;;
21095;SDS011;10706;49.036;12.112;2023-02-01T14:27:23;12.80;;;2.30;;
21095;SDS011;10706;49.036;12.112;2023-02-01T14:29:55;10.10;;;2.50;;
21095;SDS011;10706;49.036;12.112;2023-02-01T14:32:25;6.00;;;2.63;;
21095;SDS011;10706;49.036;12.112;2023-02-01T14:34:57;9.83;;;2.70;;
21095;SDS011;10706;49.036;12.112;2023-02-01T14:40:37;8.60;;;2.67;;
21095;SDS011;10706;49.036;12.112;2023-02-01T14:42:52;11.33;;;2.60;;
21095;SDS011;10706;49.036;12.112;2023-02-01T14:47:48;12.93;;;3.00;;
21095;SDS011;10706;49.036;12.112;2023-02-01T14:50:41;13.70;;;2.77;;
21095;SDS011;10706;49.036;12.112;2023-02-01T14:55:47;11.10;;;2.70;;
21095;SDS011;10706;49.036;12.112;2023-02-01T15:09:32;10.97;;;3.30;;
21095;SDS011;10706;49.036;12.112;2023-02-01T15:14:39;12.43;;;2.87;;
21095;SDS011;10706;49.036;12.112;2023-02-01T15:17:18;14.90;;;2.97;;
21095;SDS011;10706;49.036;12.112;2023-02-01T15:20:00;10.97;;;2.60;;
21095;SDS011;10706;49.036;12.112;2023-02-01T15:22:36;13.33;;;2.53;;
21095;SDS011;10706;49.036;12.112;2023-02-01T15:25:02;12.70;;;2.50;;
21095;SDS011;10706;49.036;12.112;2023-02-01T15:27:29;9.27;;;2.47;;
21095;SDS011;10706;49.036;12.112;2023-02-01T15:30:16;9.80;;;2.30;;
21095;SDS011;10706;49.036;12.112;2023-02-01T15:32:45;9.27;;;2.17;;
21095;SDS011;10706;49.036;12.112;2023-02-01T15:40:53;13.90;;;2.33;;
21095;SDS011;10706;49.036;12.112;2023-02-01T15:43:26;14.63;;;2.97;;
21095;SDS011;10706;49.036;12.112;2023-02-01T15:45:58;11.30;;;2.40;;
21095;SDS011;10706;49.036;12.112;2023-02-01T15:48:28;11.43;;;2.57;;
21095;SDS011;10706;49.036;12.112;2023-02-01T15:51:19;7.17;;;2.30;;
21095;SDS011;10706;49.036;12.112;2023-02-01T15:53:50;9.93;;;2.40;;
21095;SDS011;10706;49.036;12.112;2023-02-01T15:56:35;13.53;;;2.37;;
21095;SDS011;10706;49.036;12.112;2023-02-01T15:59:17;6.80;;;2.40;;
21095;SDS011;10706;49.036;12.112;2023-02-01T16:01:50;9.97;;;2.23;;
21095;SDS011;10706;49.036;12.112;2023-02-01T16:04:17;11.53;;;2.77;;
21095;SDS011;10706;49.036;12.112;2023-02-01T16:06:53;6.83;;;2.30;;
21095;SDS011;10706;49.036;12.112;2023-02-01T16:09:23;8.83;;;2.17;;
21095;SDS011;10706;49.036;12.112;2023-02-01T16:12:00;11.80;;;2.40;;
21095;SDS011;10706;49.036;12.112;2023-02-01T16:14:28;9.03;;;2.50;;
21095;SDS011;10706;49.036;12.112;2023-02-01T16:16:55;10.10;;;2.40;;
21095;SDS011;10706;49.036;12.112;2023-02-01T16:19:23;7.90;;;2.23;;
21095;SDS011;10706;49.036;12.112;2023-02-01T16:21:53;8.13;;;2.60;;
21095;SDS011;10706;49.036;12.112;2023-02-01T16:24:20;19.23;;;2.40;;
21095;SDS011;10706;49.036;12.112;2023-02-01T16:26:48;8.40;;;2.57;;
21095;SDS011;10706;49.036;12.112;2023-02-01T16:29:14;7.73;;;2.30;;
21095;SDS011;10706;49.036;12.112;2023-02-01T16:31:41;7.10;;;2.30;;
21095;SDS011;10706;49.036;12.112;2023-02-01T16:34:11;11.90;;;2.90;;
21095;SDS011;10706;49.036;12.112;2023-02-01T16:39:35;8.80;;;2.43;;
21095;SDS011;10706;49.036;12.112;2023-02-01T16:42:08;5.73;;;2.10;;
21095;SDS011;10706;49.036;12.112;2023-02-01T16:44:39;5.03;;;2.20;;
21095;SDS011;10706;49.036;12.112;2023-02-01T16:47:19;13.07;;;2.57;;
21095;SDS011;10706;49.036;12.112;2023-02-01T16:49:48;9.43;;;2.17;;
21095;SDS011;10706;49.036;12.112;2023-02-01T16:52:19;6.63;;;1.90;;
21095;SDS011;10706;49.036;12.112;2023-02-01T16:54:59;6.77;;;2.20;;
21095;SDS011;10706;49.036;12.112;2023-02-01T16:57:32;9.30;;;2.60;;
21095;SDS011;10706;49.036;12.112;2023-02-01T16:59:58;10.13;;;3.00;;
21095;SDS011;10706;49.036;12.112;2023-02-01T17:02:29;10.23;;;2.30;;
21095;SDS011;10706;49.036;12.112;2023-02-01T17:04:55;13.20;;;2.90;;
21095;SDS011;10706;49.036;12.112;2023-02-01T17:07:20;7.90;;;2.33;;
21095;SDS011;10706;49.036;12.112;2023-02-01T17:09:46;9.10;;;2.63;;
21095;SDS011;10706;49.036;12.112;2023-02-01T17:12:21;11.70;;;2.37;;
21095;SDS011;10706;49.036;12.112;2023-02-01T17:14:48;10.67;;;2.60;;
21095;SDS011;10706;49.036;12.112;2023-02-01T17:17:14;12.47;;;2.50;;
21095;SDS011;10706;49.036;12.112;2023-02-01T17:19:41;9.10;;;2.10;;
21095;SDS011;10706;49.036;12.112;2023-02-01T17:22:09;16.73;;;3.10;;
21095;SDS011;10706;49.036;12.112;2023-02-01T17:24:35;8.77;;;2.30;;
21095;SDS011;10706;49.036;12.112;2023-02-01T17:27:00;9.83;;;2.33;;
21095;SDS011;10706;49.036;12.112;2023-02-01T17:29:28;11.33;;;2.60;;